Lumberville, Pennsylvania
Current Conditions -  °F | °C
As of 12:54 PM on Thursday 18 Dec 2014 (Local Time) from KDYL Reporting Station
Overcast Overcast  
Wind Chill: 30°   Ceiling: 3900
Heat Index: 37°   Visibility: 10mi
Dew Point: 23°   Wind: 10mph
Humidity: 57%   Direction: 280°W
Pressure: 29.99"   Gusts: 20mph
Location:  40.41°N, 75.04°W
Report Text: KDYL 181754Z AUTO 28009G17KT 10SM OVC039 03/M05 A2999 RMK AO2 SLP163 T00281050 10028 20006 58018
Loading
Personal Weather Stations






























Interactive Weather Map New forecast layout! Learn more

10-Day Weather Forecast

Advertisements
Track Severe Weather on mobile